Aérodrome :
LOGIN :

S'inscrire | Disclaimer

   EN    FR    IT 

 










Légende :    VFR   VFR Marginal   IFR   IFR Intensif   IFR Très Intensif
Visi : 
Plafond : 
>= 8 km
>= 3000ft
5 à 8 km
1000 à 3000 ft
1500m à 5 km
500 à 1000 ft
800 à 1500m
200 à 500 ft
< 800m
< 200 ft
Symboles :   Orages  Brouillard  Fortes neiges  Fortes précipitations  Vent > 20 kt
SIGMETs :   Divers  Orages  Givrage  Turbulence  Onde Orograph.  Cendres Volcan.







- Altitude de l'aérodrome : 299 ft
- Code IATA : EDM
- Voir les cartes d'approche


LFRI - La Roche Sur Yon - Les Ajoncs

DERNIER METAR :
  • 160530Z AUTO 17003KT 2700 1100 R28/P2000 BR OVC002 13/12 Q1015 TEMPO 3000 BR

METARs EXPIRÉS :
  • 160500Z AUTO 19003KT 6000 OVC003 13/12 Q1015
  • 160430Z AUTO 18003KT 7000 BKN003 OVC016 13/13 Q1015
  • 160400Z AUTO 18003KT 8000 BKN006 BKN017 OVC029 13/13 Q1015
  • 160330Z AUTO 18002KT 9000 BKN004 BKN008 OVC015 13/13 Q1014
  • 160300Z AUTO 17004KT 4200 -DZ BR BKN003 OVC009 13/13 Q1014

TAF TAF LFRI
Valide du 16 à 06h jusqu'au 17 à 06h UTC


160500Z 1606/1706 19004KT 6000 BKN012
TEMPO 1606/1608 3000 BR BKN004
BECMG 1609/1611 9999 BKN020
BECMG 1612/1614 27006KT
BECMG 1620/1623 VRB03KT
TEMPO 1700/1706 3000 BR
Pas de NOTAMs connus pour ce terrain.



MET'MAP, la Météo Aéronautique d'un coup d'oeil ! - Copyright ORBIFLY Décembre 2007 - Disclaimer

ORBIFLY MET'MAP TEAM :

Programmation & Développement : Alexandra Zaïnal
Conception & Développement : Baudouin d'Aumeries
Co-Programmation & Développement : Marc-Olivier Méhu
Soutien technique & logistique : Manuel Goepfert

Contact : metmap@orbifly.com




SOURCES & CREDITS :

   NOAA